Terminal Aerodrome Forecast
Issued by NWS Bismarck, ND

Home | Current Version | Previous Version | Text Only | Print | Product List | Glossary Off
Versions: 1 2 3 4 5 6 7 8 9 10 11 12 13 14 15 16 17 18

045
FTUS43 KBIS 122331
TAFISN
TAF
KISN 122331Z 1300/1324 11008KT P6SM SCT250
     FM130300 12010KT P6SM OVC080
     FM130600 10012KT 3SM -SN OVC015
     FM131200 14012KT P6SM OVC020
     FM132000 17009KT P6SM -SN OVC012=

USA.gov is the U.S. government's official web portal to all federal, state and local government web resources and services.